EUFO2: Eufaula Lake

Data processed at Fri Mar 09 2018 23:11


All information presented herein is the property of the government of the United States of America and may be revised or deleted at any time without prior notice.
Dissemination of this information without the expressed written consent of the Public Affairs Office, Tulsa District U.S. Army Corps of Engineers is strictly prohibited.
These data are gathered electronically and, as presented, have not undergone any form of quality control. These data are not guaranteed to be valid or correct.
Go to home page.
Go to station list.

Upstream stations:

Downstream station:
Previous Day
Next Day
Current Day
    
SHEF ID:       EUFO2     Eufaula Lake
STATION TYPE:  RESERVOIR
Normal Pool:  Bottom =   565.00, Top =   585.00

               PRECIP ELEVATION   STORAGE   TW-ELEV    INFLOW   RELEASE  AIR-TEMP  WIND-DIRWIND-SPEED REL-HUMID SOLAR-RAD   VOLTAGE  BAT-LOAD
                   in        ft     ac-ft        ft       cfs       cfs         F       deg       mph         %      W/m2      volt      volt
              Ccp-Rev   Ccp-Rev   Ccp-Rev   Ccp-Rev  Regi-Rev  Regi-Rev   Ccp-Rev   Ccp-Rev   Ccp-Rev   Ccp-Rev   Ccp-Rev   Ccp-Rev   Ccp-Rev
(US/Central)
03/07 00:00      0.00    587.75   2460738    488.23      2710      8150     39.34    338.60      2.39     44.14      0.00     13.77     13.53
03/07 01:00      0.00    587.73   2458749    488.24      2688      7958     37.69    347.70      1.88     48.05      0.00     13.77     13.53
03/07 02:00      0.00    587.74   2459744    488.27      4280      7958     36.48    340.20      2.13     52.14      0.00     13.77     13.53
03/07 03:00      0.00    587.73   2458749    488.22      5843      8095     35.71    336.40      0.96     56.16      0.00     13.77     13.53
03/07 04:00      0.00    587.73   2458749    488.22      9026      7958     34.72    341.30      1.37     56.04      0.00     13.76     13.53
03/07 05:00      0.00    587.73   2458749    488.20      6338      7815     34.50    345.50      1.21     60.26      0.00     13.76     13.36
03/07 06:00      0.00    587.74   2459744    488.20      6468      7958     33.19    332.10      0.88     62.15      0.00     13.76     13.53
03/07 07:00      0.00    587.73   2458749    488.24      5006      7958     33.19    348.80      1.43     63.86      3.00     13.76     13.53
03/07 08:00      0.00    587.74   2459744    488.30      3572      7958     34.29    344.60      0.71     63.55    106.00     13.75     13.53
03/07 09:00      0.00    587.71   2456759    489.77      1077     14629     36.37    335.90      1.63     56.11    324.00     13.76     13.53
03/07 10:00      0.00    587.71   2456759    490.03      1905     14776     36.81    327.10      1.07     53.30    508.00     13.75     13.30
03/07 11:00      0.00    587.69   2454769    490.32      3936     16179     39.45    326.90      1.62     53.05    613.00     13.75     13.53
03/07 12:00      0.00    587.68   2453774    490.48      3807     16179     40.44    317.30      1.24     50.55    720.00     13.76     13.53
03/07 13:00      0.00    587.68   2453774    490.44      3677     16325     43.74    303.00      1.89     43.65    845.00     13.76     13.53
03/07 14:00      0.00    587.67   2452779    490.43      2989     16179     45.59    291.20      6.89     39.68    816.00     13.76     13.53
03/07 15:00      0.00    587.65   2450789    490.51      2161     16318     47.14    293.30      2.83     41.03    727.00     13.76     13.53
03/07 16:00      0.00    587.63   2448800    490.49         0     16318     49.68    289.20      4.07     35.59    579.00     13.76     13.53
03/07 17:00      0.00    587.61   2446810    490.53        34     16165     51.10    304.40      1.39     31.01    390.00     13.77     13.53
03/07 18:00      0.00    587.60   2445815    490.43        68     16161     50.88    327.90      0.77     30.28    173.00     13.77     13.53
03/07 19:00      0.00    587.57   2442830    490.56       103     16300     48.88    317.70      1.11     38.27      7.00     13.77     13.53
03/07 20:00      0.00    587.56   2441835    490.46       103     16300     46.80    311.30      1.18     51.15      0.00     13.77     13.53
03/07 21:00      0.00    587.56   2441835    490.52       103     16154     43.95    318.20      1.17     60.81      0.00     13.77     13.53
03/07 22:00      0.00    587.55   2440841    490.48      1333     16154     43.41    312.50      0.55     55.49      0.00     13.77     13.53
03/07 23:00      0.00    587.53   2438851    490.52      1647     16154     41.76     94.70      0.66     71.18      0.00     13.77     13.53